createdAt,value
2019-04-20T00:00:02.762Z,6.20
2019-04-20T00:02:11.916Z,6.23
2019-04-20T00:04:17.028Z,6.07
2019-04-20T00:06:15.546Z,6.50
2019-04-20T00:08:24.605Z,5.60
2019-04-20T00:10:27.267Z,6.43
2019-04-20T00:12:45.597Z,5.53
2019-04-20T00:14:38.770Z,6.23
2019-04-20T00:16:41.995Z,5.67
2019-04-20T00:18:50.289Z,6.23
2019-04-20T00:21:00.344Z,6.17
2019-04-20T00:23:03.786Z,5.60
2019-04-20T00:25:17.253Z,6.23
2019-04-20T00:27:38.883Z,6.27
2019-04-20T00:29:42.248Z,4.87
2019-04-20T00:31:43.099Z,5.47
2019-04-20T00:33:46.880Z,5.20
2019-04-20T00:35:40.252Z,5.37
2019-04-20T00:37:44.547Z,6.17
2019-04-20T00:39:48.870Z,5.97
2019-04-20T00:41:58.954Z,5.40
2019-04-20T00:44:06.170Z,6.03
2019-04-20T00:46:09.147Z,5.83
2019-04-20T00:48:22.528Z,5.90
2019-04-20T00:50:29.937Z,5.30
2019-04-20T00:52:35.304Z,5.53
2019-04-20T00:54:26.456Z,5.90
2019-04-20T00:56:30.960Z,5.20
2019-04-20T00:58:50.588Z,6.00
2019-04-20T01:01:04.225Z,5.63
2019-04-20T01:03:01.000Z,5.80
2019-04-20T01:05:11.078Z,4.40
2019-04-20T01:07:20.329Z,4.97
2019-04-20T01:09:15.928Z,5.50
2019-04-20T01:11:27.506Z,5.07
2019-04-20T01:13:26.894Z,5.37
2019-04-20T01:15:38.759Z,5.60
2019-04-20T01:17:37.890Z,5.93
2019-04-20T01:19:42.685Z,5.17
2019-04-20T01:21:55.109Z,5.20
2019-04-20T01:23:57.817Z,5.80
2019-04-20T01:26:05.055Z,5.50
2019-04-20T01:28:17.727Z,5.13
2019-04-20T01:30:17.454Z,5.23
2019-04-20T01:32:23.313Z,5.37
2019-04-20T01:34:37.856Z,5.10
2019-04-20T01:36:47.768Z,5.30
2019-04-20T01:38:46.967Z,4.47
2019-04-20T01:40:38.168Z,4.97
2019-04-20T01:42:42.600Z,5.33
2019-04-20T01:44:49.212Z,5.40
2019-04-20T01:47:01.251Z,5.00
2019-04-20T01:49:07.986Z,4.97
2019-04-20T01:51:16.480Z,5.50
2019-04-20T01:53:37.457Z,5.13
2019-04-20T01:55:50.843Z,5.60
2019-04-20T01:57:54.539Z,4.63
2019-04-20T01:59:55.264Z,4.80
2019-04-20T02:02:04.640Z,5.07
2019-04-20T02:04:15.800Z,5.10
2019-04-20T02:06:23.439Z,4.63
2019-04-20T02:08:29.406Z,5.27
2019-04-20T02:10:40.467Z,5.03
2019-04-20T02:12:39.534Z,4.27
2019-04-20T02:14:49.674Z,4.63
2019-04-20T02:16:56.534Z,4.40
2019-04-20T02:19:10.697Z,5.60
2019-04-20T02:21:17.852Z,5.70
2019-04-20T02:23:17.363Z,5.17
2019-04-20T02:25:12.062Z,4.80
2019-04-20T02:27:20.566Z,4.40
2019-04-20T02:29:44.310Z,5.33
2019-04-20T02:34:18.332Z,5.10
2019-04-20T02:36:33.687Z,4.47
2019-04-20T02:38:41.598Z,5.33
2019-04-20T02:42:51.064Z,4.57
2019-04-20T02:45:07.076Z,4.30
2019-04-20T02:46:56.062Z,4.80
2019-04-20T02:49:10.237Z,4.93
2019-04-20T02:51:06.259Z,4.60
2019-04-20T02:53:16.453Z,4.60
2019-04-20T02:55:18.615Z,3.70
2019-04-20T02:57:35.263Z,4.50
2019-04-20T03:01:26.693Z,4.33
2019-04-20T03:03:22.769Z,5.47
2019-04-20T03:05:29.688Z,5.37
2019-04-20T03:07:41.469Z,4.60
2019-04-20T03:09:53.515Z,4.63
2019-04-20T03:13:58.101Z,4.27
2019-04-20T03:16:03.464Z,4.97
2019-04-20T03:18:13.631Z,4.73
2019-04-20T03:20:21.173Z,5.07
2019-04-20T03:22:33.766Z,4.50
2019-04-20T03:24:35.252Z,4.60
2019-04-20T03:26:35.294Z,4.47
2019-04-20T03:28:45.398Z,5.03
2019-04-20T03:35:17.392Z,4.80
2019-04-20T03:37:20.370Z,4.50
2019-04-20T03:39:18.107Z,4.40
2019-04-20T03:41:13.970Z,4.33
2019-04-20T03:43:09.867Z,4.60
2019-04-20T03:45:17.846Z,4.40
2019-04-20T03:47:30.470Z,5.00
2019-04-20T03:49:48.279Z,5.30
2019-04-20T03:51:55.943Z,5.13
2019-04-20T03:54:02.645Z,4.83
2019-04-20T03:56:21.574Z,4.80
2019-04-20T03:58:29.156Z,4.63
2019-04-20T04:00:36.275Z,4.87
2019-04-20T04:03:03.510Z,5.33
2019-04-20T04:05:12.541Z,4.63
2019-04-20T04:06:59.770Z,5.00
2019-04-20T04:09:12.228Z,5.67
2019-04-20T04:11:26.172Z,5.97
2019-04-20T04:13:18.741Z,5.23
2019-04-20T04:15:23.098Z,4.70
2019-04-20T04:17:33.819Z,4.93
2019-04-20T04:19:36.643Z,4.40
2019-04-20T04:21:52.438Z,3.73
2019-04-20T04:24:00.001Z,3.97
2019-04-20T04:26:14.372Z,4.07
2019-04-20T04:28:10.758Z,5.07
2019-04-20T04:30:14.206Z,5.33
2019-04-20T04:32:50.037Z,5.87
2019-04-20T04:34:30.610Z,5.00
2019-04-20T04:36:38.769Z,5.30
2019-04-20T04:39:00.034Z,5.97
2019-04-20T04:40:56.715Z,5.27
2019-04-20T04:42:52.477Z,4.00
2019-04-20T04:44:48.449Z,4.40
2019-04-20T04:46:53.720Z,3.97
2019-04-20T04:48:52.887Z,4.17
2019-04-20T04:51:02.713Z,4.30
2019-04-20T04:53:09.072Z,4.20
2019-04-20T04:55:19.962Z,6.07
2019-04-20T04:57:15.659Z,5.73
2019-04-20T04:59:19.677Z,4.70
2019-04-20T05:01:28.762Z,4.97
2019-04-20T05:03:45.394Z,4.83
2019-04-20T05:05:56.770Z,5.80
2019-04-20T05:07:57.631Z,5.83
2019-04-20T05:09:49.020Z,4.90
2019-04-20T05:11:59.963Z,4.60
2019-04-20T05:14:04.959Z,5.07
2019-04-20T05:16:19.191Z,5.13
2019-04-20T05:18:34.669Z,4.40
2019-04-20T05:20:37.175Z,5.30
2019-04-20T05:22:58.767Z,4.93
2019-04-20T05:25:10.832Z,4.70
2019-04-20T05:27:32.052Z,4.93
2019-04-20T05:29:24.802Z,4.53
2019-04-20T05:31:36.087Z,5.50
2019-04-20T05:33:48.792Z,5.43
2019-04-20T05:35:58.924Z,5.10
2019-04-20T05:38:09.324Z,5.77
2019-04-20T05:40:10.678Z,4.20
2019-04-20T05:42:22.203Z,4.10
2019-04-20T05:44:12.708Z,5.10
2019-04-20T05:46:26.229Z,5.37
2019-04-20T05:48:24.770Z,5.70
2019-04-20T05:50:37.987Z,4.10
2019-04-20T05:52:50.668Z,4.50
2019-04-20T05:54:51.344Z,5.90
2019-04-20T05:57:00.776Z,6.80
2019-04-20T05:59:00.878Z,4.77
2019-04-20T06:01:06.749Z,4.97
2019-04-20T06:03:05.994Z,4.33
2019-04-20T06:05:16.685Z,4.67
2019-04-20T06:07:26.840Z,3.63
2019-04-20T06:09:28.541Z,5.80
2019-04-20T06:11:38.427Z,5.30
2019-04-20T06:13:40.746Z,5.07
2019-04-20T06:16:03.485Z,5.23
2019-04-20T06:18:13.603Z,4.73
2019-04-20T06:20:20.252Z,5.10
2019-04-20T06:22:36.641Z,5.00
2019-04-20T06:24:47.849Z,4.53
2019-04-20T06:28:46.442Z,5.03
2019-04-20T06:30:48.055Z,4.70
2019-04-20T06:33:52.050Z,4.53
2019-04-20T06:36:03.678Z,4.37
2019-04-20T06:37:53.757Z,4.27
2019-04-20T06:39:59.190Z,4.70
2019-04-20T06:44:08.471Z,5.43
2019-04-20T06:46:16.156Z,3.93
2019-04-20T06:48:21.439Z,4.83
2019-04-20T06:50:18.680Z,5.27
2019-04-20T06:52:27.689Z,4.87
2019-04-20T06:54:38.432Z,4.60
2019-04-20T06:56:48.422Z,4.93
2019-04-20T06:58:54.160Z,4.27
2019-04-20T07:01:00.175Z,4.80
2019-04-20T07:03:01.835Z,5.43
2019-04-20T07:05:22.460Z,4.70
2019-04-20T07:07:14.566Z,4.73
2019-04-20T07:09:22.045Z,4.30
2019-04-20T07:11:23.950Z,4.37
2019-04-20T07:13:22.051Z,5.50
2019-04-20T07:15:38.769Z,5.00
2019-04-20T07:17:54.732Z,5.23
2019-04-20T07:19:50.148Z,6.40
2019-04-20T07:22:23.391Z,4.47
2019-04-20T07:24:11.855Z,5.03
2019-04-20T07:26:16.841Z,4.17
2019-04-20T07:28:29.126Z,4.50
2019-04-20T07:30:33.446Z,4.40
2019-04-20T07:32:40.424Z,4.20
2019-04-20T07:34:43.428Z,3.77
2019-04-20T07:36:51.502Z,3.93
2019-04-20T07:38:53.856Z,3.87
2019-04-20T07:40:55.814Z,3.63
2019-04-20T07:43:01.580Z,4.00
2019-04-20T07:45:07.730Z,4.30
2019-04-20T07:47:13.948Z,3.83
2019-04-20T07:49:18.204Z,3.87
2019-04-20T07:51:13.692Z,3.77
2019-04-20T07:53:26.036Z,4.07
2019-04-20T07:57:35.407Z,4.20
2019-04-20T07:59:37.388Z,4.60
2019-04-20T08:02:13.717Z,4.20
2019-04-20T08:04:09.289Z,5.13
2019-04-20T08:06:21.343Z,4.83
2019-04-20T08:08:32.727Z,5.60
2019-04-20T08:10:49.922Z,4.77
2019-04-20T08:15:04.955Z,6.43
2019-04-20T08:17:14.234Z,6.73
2019-04-20T08:19:07.447Z,6.70
2019-04-20T08:21:20.905Z,5.10
2019-04-20T08:23:23.359Z,4.87
2019-04-20T08:25:20.218Z,5.30
2019-04-20T08:27:23.467Z,5.40
2019-04-20T08:29:47.477Z,5.07
2019-04-20T08:32:10.342Z,5.20
2019-04-20T08:34:39.780Z,4.27
2019-04-20T08:36:43.237Z,4.97
2019-04-20T08:39:06.819Z,4.97
2019-04-20T08:40:47.926Z,5.47
2019-04-20T08:43:02.415Z,4.90
2019-04-20T08:45:03.631Z,4.90
2019-04-20T08:47:14.661Z,5.03
2019-04-20T08:49:11.575Z,3.90
2019-04-20T08:51:12.129Z,4.43
2019-04-20T08:53:26.497Z,5.50
2019-04-20T08:55:23.386Z,4.40
2019-04-20T08:57:13.581Z,4.20
2019-04-20T08:59:18.809Z,4.60
2019-04-20T09:01:28.268Z,4.00
2019-04-20T09:03:32.562Z,5.20
2019-04-20T09:05:47.376Z,4.30
2019-04-20T09:07:53.898Z,5.57
2019-04-20T09:10:10.756Z,5.00
2019-04-20T09:12:12.905Z,4.23
2019-04-20T09:14:01.795Z,4.17
2019-04-20T09:16:04.281Z,4.13
2019-04-20T09:18:22.496Z,4.73
2019-04-20T09:20:31.740Z,4.80
2019-04-20T09:22:40.979Z,4.17
2019-04-20T09:25:01.445Z,4.53
2019-04-20T09:27:01.361Z,4.90
2019-04-20T09:29:03.135Z,4.93
2019-04-20T09:31:18.570Z,6.03
2019-04-20T09:33:43.955Z,4.43
2019-04-20T09:35:43.123Z,5.10
2019-04-20T09:37:53.106Z,5.33
2019-04-20T09:40:02.357Z,4.67
2019-04-20T09:42:03.145Z,5.30
2019-04-20T09:44:07.159Z,5.67
2019-04-20T09:46:11.812Z,4.20
2019-04-20T09:48:25.227Z,4.33
2019-04-20T09:50:45.001Z,5.30
2019-04-20T09:52:51.732Z,5.37
2019-04-20T09:54:55.148Z,5.00
2019-04-20T09:57:03.204Z,4.23
2019-04-20T09:59:08.225Z,4.30
2019-04-20T10:01:10.893Z,4.30
2019-04-20T10:03:00.331Z,4.40
2019-04-20T10:05:07.380Z,4.60
2019-04-20T10:07:16.001Z,5.13
2019-04-20T10:09:21.299Z,4.67
2019-04-20T10:11:23.649Z,3.87
2019-04-20T10:13:27.701Z,4.87
2019-04-20T10:15:32.934Z,4.30
2019-04-20T10:17:38.559Z,4.53
2019-04-20T10:19:44.500Z,4.77
2019-04-20T10:21:48.679Z,4.20
2019-04-20T10:23:52.928Z,5.10
2019-04-20T10:25:56.839Z,4.60
2019-04-20T10:28:01.374Z,4.60
2019-04-20T10:30:08.138Z,4.65
2019-04-20T10:32:14.535Z,4.87
2019-04-20T10:34:19.544Z,3.83
2019-04-20T10:36:25.702Z,4.67
2019-04-20T10:38:34.291Z,5.00
2019-04-20T10:40:50.282Z,4.67
2019-04-20T10:42:43.907Z,4.40
2019-04-20T10:44:48.522Z,4.33
2019-04-20T10:46:53.385Z,4.67
2019-04-20T10:49:03.695Z,4.90
2019-04-20T10:51:03.201Z,4.30
2019-04-20T10:53:07.959Z,4.70
2019-04-20T10:55:12.462Z,5.10
2019-04-20T10:57:17.418Z,5.53
2019-04-20T10:59:23.457Z,5.50
2019-04-20T11:01:27.537Z,5.80
2019-04-20T11:03:32.335Z,5.23
2019-04-20T11:05:38.303Z,5.93
2019-04-20T11:07:42.505Z,5.63
2019-04-20T11:09:47.116Z,4.37
2019-04-20T11:11:52.337Z,4.87
2019-04-20T11:13:59.865Z,4.67
2019-04-20T11:16:04.595Z,5.43
2019-04-20T11:18:09.261Z,5.13
2019-04-20T11:20:13.596Z,5.50
2019-04-20T11:22:17.545Z,5.80
2019-04-20T11:24:22.462Z,5.73
2019-04-20T11:26:28.493Z,5.80
2019-04-20T11:28:32.739Z,5.50
2019-04-20T11:30:38.267Z,5.33
2019-04-20T11:32:44.313Z,6.13
2019-04-20T11:34:49.181Z,5.30
2019-04-20T11:36:53.462Z,6.40
2019-04-20T11:38:58.755Z,4.60
2019-04-20T11:41:11.299Z,4.70
2019-04-20T11:43:08.559Z,6.07
2019-04-20T11:45:12.969Z,6.20
2019-04-20T11:47:18.879Z,5.30
2019-04-20T11:49:23.674Z,5.63
2019-04-20T11:51:27.876Z,4.73
2019-04-20T11:53:32.238Z,5.63
2019-04-20T11:55:36.342Z,5.50
2019-04-20T11:57:43.136Z,5.47
2019-04-20T11:59:48.385Z,5.70
2019-04-20T12:02:21.488Z,5.60
2019-04-20T12:04:36.133Z,5.87
2019-04-20T12:06:30.818Z,5.03
2019-04-20T12:08:38.538Z,5.30
2019-04-20T12:10:43.776Z,6.53
2019-04-20T12:12:50.458Z,6.33
2019-04-20T12:14:52.608Z,6.63
2019-04-20T12:16:57.575Z,6.00
2019-04-20T12:19:02.228Z,6.07
2019-04-20T12:21:06.264Z,5.17
2019-04-20T12:23:12.565Z,6.07
2019-04-20T12:25:16.756Z,5.77
2019-04-20T12:27:22.891Z,5.20
2019-04-20T12:29:27.945Z,5.63
2019-04-20T12:31:33.540Z,5.50
2019-04-20T12:33:37.574Z,6.70
2019-04-20T12:35:42.545Z,6.07
2019-04-20T12:37:47.315Z,5.80
2019-04-20T12:39:53.283Z,6.40
2019-04-20T12:42:00.472Z,5.93
2019-04-20T12:44:03.902Z,6.10
2019-04-20T12:46:08.002Z,6.00
2019-04-20T12:48:11.903Z,5.07
2019-04-20T12:50:17.351Z,5.53
2019-04-20T12:52:22.661Z,5.83
2019-04-20T12:54:26.956Z,5.30
2019-04-20T12:56:32.727Z,6.53
2019-04-20T12:58:37.248Z,5.77
2019-04-20T13:00:45.887Z,6.77
2019-04-20T13:02:51.471Z,5.97
2019-04-20T13:04:55.585Z,5.73
2019-04-20T13:07:01.788Z,5.20
2019-04-20T13:09:10.620Z,6.13
2019-04-20T13:11:16.372Z,5.83
2019-04-20T13:13:34.640Z,5.37
2019-04-20T13:15:46.669Z,5.90
2019-04-20T13:17:52.500Z,5.77
2019-04-20T13:19:57.505Z,6.07
2019-04-20T13:22:03.082Z,5.87
2019-04-20T13:24:07.108Z,6.00
2019-04-20T13:26:12.749Z,6.17
2019-04-20T13:28:21.137Z,5.67
2019-04-20T13:30:25.887Z,6.17
2019-04-20T13:32:30.051Z,6.53
2019-04-20T13:34:33.994Z,5.67
2019-04-20T13:36:38.171Z,6.33
2019-04-20T13:38:42.300Z,6.00
2019-04-20T13:40:46.289Z,6.40
2019-04-20T13:42:53.899Z,6.17
2019-04-20T13:44:59.254Z,5.67
2019-04-20T13:47:03.267Z,6.10
2019-04-20T13:49:07.144Z,5.87
2019-04-20T13:51:12.594Z,6.07
2019-04-20T13:53:17.944Z,5.40
2019-04-20T13:55:24.927Z,6.23
2019-04-20T13:57:47.156Z,6.50
2019-04-20T14:00:00.045Z,6.13
2019-04-20T14:02:22.446Z,5.13
2019-04-20T14:04:28.555Z,5.47
2019-04-20T14:06:33.135Z,5.90
2019-04-20T14:08:37.580Z,5.50
2019-04-20T14:10:42.472Z,5.70
2019-04-20T14:12:57.256Z,5.80
2019-04-20T14:14:53.157Z,5.47
2019-04-20T14:16:57.267Z,5.70
2019-04-20T14:19:01.175Z,6.07
2019-04-20T14:21:05.962Z,5.70
2019-04-20T14:23:09.981Z,5.30
2019-04-20T14:25:15.232Z,5.83
2019-04-20T14:27:19.321Z,5.93
2019-04-20T14:29:23.235Z,6.07
2019-04-20T14:31:27.930Z,6.03
2019-04-20T14:33:32.738Z,5.70
2019-04-20T14:35:36.943Z,6.53
2019-04-20T14:37:41.612Z,5.60
2019-04-20T14:39:46.193Z,5.10
2019-04-20T14:41:50.280Z,5.57
2019-04-20T14:43:55.256Z,5.50
2019-04-20T14:46:00.775Z,5.53
2019-04-20T14:48:05.793Z,6.30
2019-04-20T14:50:11.679Z,6.60
2019-04-20T14:52:17.503Z,7.47
2019-04-20T14:54:21.722Z,6.80
2019-04-20T14:56:25.602Z,7.57
2019-04-20T14:58:41.673Z,9.33
2019-04-20T15:00:53.192Z,10.27
2019-04-20T15:02:59.489Z,10.13
2019-04-20T15:05:05.317Z,11.97
2019-04-20T15:07:10.749Z,12.93
2019-04-20T15:09:14.912Z,10.57
2019-04-20T15:11:18.900Z,11.33
2019-04-20T15:13:22.823Z,11.13
2019-04-20T15:15:30.400Z,11.83
2019-04-20T15:17:43.612Z,10.30
2019-04-20T15:19:49.619Z,9.80
2019-04-20T15:21:59.516Z,9.07
2019-04-20T15:24:04.037Z,8.60
2019-04-20T15:26:08.695Z,6.80
2019-04-20T15:28:12.654Z,6.93
2019-04-20T15:30:16.551Z,9.03
2019-04-20T15:32:20.834Z,8.33
2019-04-20T15:34:25.109Z,7.97
2019-04-20T15:36:29.036Z,8.60
2019-04-20T15:38:33.296Z,8.47
2019-04-20T15:40:37.417Z,8.80
2019-04-20T15:42:51.544Z,9.67
2019-04-20T15:44:47.269Z,10.83
2019-04-20T15:46:51.325Z,11.70
2019-04-20T15:48:55.778Z,12.33
2019-04-20T15:50:59.953Z,11.63
2019-04-20T15:53:04.073Z,11.03
2019-04-20T15:55:16.488Z,10.57
2019-04-20T15:57:18.430Z,10.10
2019-04-20T15:59:20.078Z,10.77
2019-04-20T16:01:26.081Z,10.63
2019-04-20T16:03:47.624Z,9.70
2019-04-20T16:06:01.046Z,9.77
2019-04-20T16:08:21.784Z,9.67
2019-04-20T16:10:25.752Z,9.47
2019-04-20T16:12:30.985Z,9.97
2019-04-20T16:14:35.489Z,9.83
2019-04-20T16:16:40.369Z,9.50
2019-04-20T16:18:45.321Z,9.67
2019-04-20T16:20:58.179Z,10.77
2019-04-20T16:22:56.492Z,9.23
2019-04-20T16:25:03.479Z,8.43
2019-04-20T16:27:17.942Z,8.60
2019-04-20T16:29:21.982Z,10.20
2019-04-20T16:31:26.857Z,12.30
2019-04-20T16:33:30.911Z,12.37
2019-04-20T16:35:36.267Z,12.80
2019-04-20T16:37:40.365Z,11.73
2019-04-20T16:39:44.243Z,10.20
2019-04-20T16:41:48.554Z,11.50
2019-04-20T16:43:53.418Z,11.23
2019-04-20T16:45:57.717Z,10.23
2019-04-20T16:48:02.207Z,10.23
2019-04-20T16:50:08.850Z,10.07
2019-04-20T16:52:12.836Z,9.37
2019-04-20T16:54:17.617Z,9.60
2019-04-20T16:56:22.407Z,10.53
2019-04-20T16:58:28.010Z,12.23
2019-04-20T17:00:33.434Z,12.77
2019-04-20T17:02:38.226Z,13.90
2019-04-20T17:04:42.894Z,13.17
2019-04-20T17:07:08.105Z,12.80
2019-04-20T17:09:12.258Z,12.70
2019-04-20T17:11:18.030Z,12.13
2019-04-20T17:13:31.875Z,13.93
2019-04-20T17:15:27.791Z,12.37
2019-04-20T17:17:31.749Z,12.80
2019-04-20T17:19:35.737Z,12.80
2019-04-20T17:21:40.292Z,11.10
2019-04-20T17:23:45.676Z,10.83
2019-04-20T17:25:50.297Z,11.37
2019-04-20T17:27:57.209Z,12.63
2019-04-20T17:30:07.271Z,12.77
2019-04-20T17:32:15.880Z,14.17
2019-04-20T17:34:37.759Z,13.73
2019-04-20T17:36:29.858Z,14.23
2019-04-20T17:38:37.508Z,13.37
2019-04-20T17:40:55.900Z,14.77
2019-04-20T17:42:53.023Z,14.97
2019-04-20T17:44:58.744Z,14.83
2019-04-20T17:47:04.134Z,15.17
2019-04-20T17:49:13.605Z,16.13
2019-04-20T17:51:30.163Z,15.90
2019-04-20T17:53:37.679Z,15.93
2019-04-20T17:55:41.230Z,16.23
2019-04-20T17:57:43.587Z,16.40
2019-04-20T17:59:53.289Z,17.30
2019-04-20T18:02:07.770Z,16.60
2019-04-20T18:04:36.646Z,18.63
2019-04-20T18:06:25.378Z,19.90
2019-04-20T18:08:35.640Z,20.83
2019-04-20T18:10:40.372Z,23.73
2019-04-20T18:12:37.468Z,24.90
2019-04-20T18:14:47.990Z,28.37
2019-04-20T18:17:03.259Z,27.77
2019-04-20T18:19:07.763Z,31.97
2019-04-20T18:21:06.462Z,33.80
2019-04-20T18:23:10.919Z,29.13
2019-04-20T18:25:38.102Z,28.40
2019-04-20T18:27:44.020Z,25.97
2019-04-20T18:29:47.975Z,24.03
2019-04-20T18:31:39.609Z,24.20
2019-04-20T18:33:44.524Z,23.70
2019-04-20T18:35:49.513Z,25.63
2019-04-20T18:38:00.935Z,27.60
2019-04-20T18:40:07.376Z,27.37
2019-04-20T18:42:12.987Z,33.93
2019-04-20T18:44:11.177Z,35.27
2019-04-20T18:46:34.686Z,36.60
2019-04-20T18:48:45.078Z,37.07
2019-04-20T18:50:34.536Z,38.13
2019-04-20T18:52:33.721Z,37.30
2019-04-20T18:54:42.526Z,43.47
2019-04-20T18:56:47.360Z,50.70
2019-04-20T18:58:49.403Z,40.30
2019-04-20T19:00:55.138Z,49.73
2019-04-20T19:03:11.175Z,52.43
2019-04-20T19:05:08.678Z,45.33
2019-04-20T19:07:14.064Z,42.83
2019-04-20T19:09:24.243Z,36.43
2019-04-20T19:11:26.720Z,35.33
2019-04-20T19:13:44.638Z,35.10
2019-04-20T19:16:19.712Z,37.30
2019-04-20T19:18:25.908Z,32.27
2019-04-20T19:20:26.918Z,34.37
2019-04-20T19:22:30.341Z,46.80
2019-04-20T19:24:36.828Z,37.10
2019-04-20T19:26:46.645Z,45.77
2019-04-20T19:28:52.773Z,38.00
2019-04-20T19:31:05.752Z,40.93
2019-04-20T19:33:14.315Z,35.03
2019-04-20T19:35:14.690Z,36.57
2019-04-20T19:37:16.994Z,46.20
2019-04-20T19:39:29.863Z,37.10
2019-04-20T19:41:32.127Z,39.10
2019-04-20T19:43:31.507Z,41.70
2019-04-20T19:45:56.665Z,42.63
2019-04-20T19:47:51.273Z,42.23
2019-04-20T19:49:56.154Z,50.10
2019-04-20T19:52:21.082Z,44.23
2019-04-20T19:54:22.783Z,50.97
2019-04-20T19:56:10.780Z,36.63
2019-04-20T19:58:16.222Z,38.70
2019-04-20T20:00:11.488Z,37.97
2019-04-20T20:02:16.158Z,38.90
2019-04-20T20:04:21.691Z,36.43
2019-04-20T20:06:35.472Z,36.27
2019-04-20T20:08:34.842Z,44.80
2019-04-20T20:10:40.500Z,43.70
2019-04-20T20:12:48.450Z,43.93
2019-04-20T20:14:50.978Z,40.30
2019-04-20T20:17:12.888Z,38.87
2019-04-20T20:19:10.064Z,34.43
2019-04-20T20:21:20.380Z,35.27
2019-04-20T20:23:12.046Z,34.37
2019-04-20T20:25:17.022Z,36.80
2019-04-20T20:27:31.760Z,35.37
2019-04-20T20:29:34.285Z,36.27
2019-04-20T20:31:49.960Z,39.00
2019-04-20T20:33:56.425Z,35.47
2019-04-20T20:35:53.626Z,34.87
2019-04-20T20:37:55.643Z,43.43
2019-04-20T20:40:08.945Z,40.60
2019-04-20T20:42:10.779Z,37.50
2019-04-20T20:44:18.523Z,38.20
2019-04-20T20:46:24.021Z,33.43
2019-04-20T20:48:32.093Z,33.97
2019-04-20T20:50:44.445Z,32.03
2019-04-20T20:52:44.020Z,42.37
2019-04-20T20:54:44.262Z,33.70
2019-04-20T20:56:49.941Z,49.37
2019-04-20T20:58:56.049Z,45.60
2019-04-20T21:00:58.537Z,32.43
2019-04-20T21:03:01.824Z,37.13
2019-04-20T21:05:02.012Z,33.57
2019-04-20T21:07:06.715Z,32.50
2019-04-20T21:09:10.792Z,33.67
2019-04-20T21:11:20.319Z,33.20
2019-04-20T21:13:28.018Z,31.50
2019-04-20T21:15:28.588Z,33.47
2019-04-20T21:17:46.418Z,33.63
2019-04-20T21:19:58.030Z,31.83
2019-04-20T21:21:53.214Z,34.23
2019-04-20T21:24:00.283Z,33.70
2019-04-20T21:26:12.748Z,32.67
2019-04-20T21:28:13.142Z,28.67
2019-04-20T21:30:22.724Z,32.63
2019-04-20T21:32:23.681Z,40.90
2019-04-20T21:34:29.011Z,39.80
2019-04-20T21:36:33.500Z,42.00
2019-04-20T21:38:42.363Z,48.27
2019-04-20T21:40:47.982Z,82.03
2019-04-20T21:42:57.252Z,55.30
2019-04-20T21:45:04.614Z,52.93
2019-04-20T21:47:02.981Z,60.47
2019-04-20T21:49:23.758Z,54.00
2019-04-20T21:51:29.727Z,59.73
2019-04-20T21:53:24.994Z,65.23
2019-04-20T21:55:25.944Z,51.10
2019-04-20T21:57:31.355Z,62.83
2019-04-20T21:59:42.674Z,49.07
2019-04-20T22:01:51.684Z,54.23
2019-04-20T22:03:47.999Z,60.77
2019-04-20T22:06:04.692Z,63.33
2019-04-20T22:08:12.352Z,65.87
2019-04-20T22:10:19.920Z,61.00
2019-04-20T22:12:20.232Z,51.77
2019-04-20T22:14:27.890Z,50.67
2019-04-20T22:16:35.366Z,50.83
2019-04-20T22:18:48.213Z,46.10
2019-04-20T22:20:53.250Z,58.87
2019-04-20T22:22:59.767Z,48.03
2019-04-20T22:25:06.270Z,50.77
2019-04-20T22:27:06.436Z,49.20
2019-04-20T22:29:03.427Z,56.33
2019-04-20T22:31:08.228Z,57.70
2019-04-20T22:33:16.630Z,57.97
2019-04-20T22:35:22.286Z,55.53
2019-04-20T22:37:30.113Z,58.30
2019-04-20T22:39:39.763Z,58.20
2019-04-20T22:41:47.953Z,82.83
2019-04-20T22:43:48.299Z,76.37
2019-04-20T22:45:54.012Z,83.43
2019-04-20T22:48:01.158Z,67.53
2019-04-20T22:50:20.284Z,80.23
2019-04-20T22:52:26.269Z,86.17
2019-04-20T22:54:34.579Z,80.23
2019-04-20T22:56:38.300Z,78.47
2019-04-20T22:58:40.528Z,59.00
2019-04-20T23:00:43.626Z,62.83
2019-04-20T23:02:38.836Z,61.70
2019-04-20T23:04:42.817Z,75.07
2019-04-20T23:06:50.138Z,77.03
2019-04-20T23:08:56.429Z,73.20
2019-04-20T23:10:57.835Z,70.70
2019-04-20T23:13:03.114Z,70.03
2019-04-20T23:15:10.212Z,61.87
2019-04-20T23:17:18.176Z,65.37
2019-04-20T23:19:32.353Z,68.30
2019-04-20T23:21:25.848Z,71.13
2019-04-20T23:23:30.965Z,58.33
2019-04-20T23:25:36.530Z,53.20
2019-04-20T23:27:42.063Z,52.20
2019-04-20T23:29:46.931Z,55.23
2019-04-20T23:31:56.923Z,59.47
2019-04-20T23:33:59.886Z,74.33
2019-04-20T23:36:04.593Z,75.03
2019-04-20T23:38:12.475Z,74.83
2019-04-20T23:40:15.393Z,72.97
2019-04-20T23:42:21.833Z,77.30
2019-04-20T23:44:27.592Z,74.10
2019-04-20T23:46:33.347Z,78.37
2019-04-20T23:48:56.177Z,76.23
2019-04-20T23:51:24.999Z,77.77
2019-04-20T23:53:24.693Z,76.37
2019-04-20T23:55:14.000Z,74.83
2019-04-20T23:57:17.688Z,74.73
2019-04-20T23:59:30.742Z,65.87
